Time;durP1;ratioP1;P1;durP2;ratioP2;P2;SDS_P1;SDS_P2;PMS_P1;PMS_P2;Temp;Humidity;BMP_temperature;BMP_pressure;BME280_temperature;BME280_humidity;BME280_pressure;Samples;Min_cycle;Max_cycle;Signal;HPM_P1;HPM_P2
2023/10/08 00:02:27;;;;;;;3.00;2.07;;;11.20;99.90;;;;;;5210272;28;20468;-51
2023/10/08 00:05:00;;;;;;;15.00;3.10;;;11.30;99.90;;;;;;5209841;28;20464;-51
2023/10/08 00:07:30;;;;;;;4.33;2.30;;;11.20;99.90;;;;;;5212393;28;20236;-52
2023/10/08 00:10:02;;;;;;;10.90;2.97;;;11.20;99.90;;;;;;5218125;28;20437;-51
2023/10/08 00:12:33;;;;;;;10.77;2.60;;;11.20;99.90;;;;;;5228283;28;20207;-52
2023/10/08 00:15:07;;;;;;;4.80;2.70;;;11.20;99.90;;;;;;5225381;28;20441;-52
2023/10/08 00:17:37;;;;;;;7.40;3.00;;;11.20;99.90;;;;;;5231529;28;20241;-51
2023/10/08 00:20:08;;;;;;;3.50;2.67;;;11.20;99.90;;;;;;5226552;28;20442;-52
2023/10/08 00:22:39;;;;;;;12.27;3.70;;;11.20;99.90;;;;;;5209715;28;20540;-51
2023/10/08 00:25:11;;;;;;;7.70;2.83;;;11.20;99.90;;;;;;5225482;28;20472;-51
2023/10/08 00:27:42;;;;;;;5.90;2.60;;;11.20;99.90;;;;;;5230937;28;20551;-54
2023/10/08 00:30:17;;;;;;;4.90;2.70;;;11.20;99.90;;;;;;5211522;28;20432;-50
2023/10/08 00:32:48;;;;;;;6.00;3.43;;;11.20;99.90;;;;;;5230092;28;20694;-56
2023/10/08 00:35:20;;;;;;;10.63;3.03;;;11.20;99.90;;;;;;5226742;28;20498;-50
2023/10/08 00:37:51;;;;;;;8.00;2.70;;;11.20;99.90;;;;;;5224930;28;20179;-51
2023/10/08 00:40:22;;;;;;;7.17;3.10;;;11.20;99.90;;;;;;5224279;28;20456;-51
2023/10/08 00:42:56;;;;;;;6.10;2.53;;;11.20;99.90;;;;;;5206188;28;20215;-51
2023/10/08 00:45:30;;;;;;;14.93;4.00;;;11.20;99.90;;;;;;5209450;28;20457;-51
2023/10/08 00:48:01;;;;;;;6.60;3.13;;;11.10;99.90;;;;;;5211135;28;20425;-51
2023/10/08 00:50:42;;;;;;;3.93;2.60;;;11.10;99.90;;;;;;5228155;28;20464;-51
2023/10/08 00:53:23;;;;;;;9.87;3.53;;;11.10;99.90;;;;;;5228158;28;20452;-51
2023/10/08 00:56:04;;;;;;;5.97;2.90;;;11.10;99.90;;;;;;5224699;28;20429;-51
2023/10/08 00:58:35;;;;;;;13.00;2.93;;;11.10;99.90;;;;;;5212590;28;20434;-51
2023/10/08 01:01:10;;;;;;;7.43;3.00;;;11.10;99.90;;;;;;5211125;28;20467;-51
2023/10/08 01:03:44;;;;;;;9.27;3.10;;;11.10;99.90;;;;;;5192710;28;20464;-50
2023/10/08 01:06:18;;;;;;;7.43;3.17;;;11.20;99.90;;;;;;5190505;28;21000;-50
2023/10/08 01:08:52;;;;;;;23.77;3.37;;;11.10;99.90;;;;;;5210756;28;20448;-51
2023/10/08 01:14:15;;;;;;;4.20;2.57;;;11.20;99.90;;;;;;5230492;28;20507;-51
2023/10/08 01:16:47;;;;;;;5.20;2.10;;;11.10;99.90;;;;;;5216071;28;20440;-51
2023/10/08 01:19:20;;;;;;;8.13;2.83;;;11.10;99.90;;;;;;5230379;28;20448;-51
2023/10/08 01:21:51;;;;;;;12.53;2.53;;;11.10;99.90;;;;;;5230961;28;20979;-52
2023/10/08 01:24:24;;;;;;;5.50;2.67;;;11.00;99.90;;;;;;5221590;28;20860;-51
2023/10/08 01:26:54;;;;;;;6.80;2.37;;;11.10;99.90;;;;;;5192411;28;20437;-52
2023/10/08 01:29:28;;;;;;;4.50;2.80;;;11.10;99.90;;;;;;5215074;28;20448;-51
2023/10/08 01:32:01;;;;;;;11.80;3.37;;;11.00;99.90;;;;;;5225708;28;20705;-52
2023/10/08 01:34:36;;;;;;;4.97;2.70;;;11.00;99.90;;;;;;5210631;28;20457;-52
2023/10/08 01:37:09;;;;;;;7.67;3.30;;;11.00;99.90;;;;;;5216080;28;20436;-52
2023/10/08 01:39:42;;;;;;;9.20;2.33;;;11.00;99.90;;;;;;5230814;28;20847;-52
2023/10/08 01:42:20;;;;;;;7.33;3.47;;;10.90;99.90;;;;;;5229600;28;20453;-52
2023/10/08 01:44:54;;;;;;;18.17;3.60;;;10.80;99.90;;;;;;5205209;28;20461;-51
2023/10/08 01:47:25;;;;;;;11.70;3.50;;;10.90;99.90;;;;;;5227041;28;20499;-51
2023/10/08 01:50:05;;;;;;;8.67;3.13;;;10.90;99.90;;;;;;5226185;28;20854;-50
2023/10/08 01:52:40;;;;;;;5.50;2.10;;;10.80;99.90;;;;;;5225021;28;20453;-50
2023/10/08 01:55:14;;;;;;;7.20;2.70;;;10.90;99.90;;;;;;5208057;28;20449;-51
2023/10/08 01:57:46;;;;;;;5.47;2.90;;;10.90;99.90;;;;;;5209362;28;20449;-51
2023/10/08 02:00:19;;;;;;;9.97;2.87;;;10.90;99.90;;;;;;5224794;28;20417;-52
2023/10/08 02:02:51;;;;;;;12.20;2.60;;;10.90;99.90;;;;;;5222589;28;20469;-51
2023/10/08 02:05:21;;;;;;;8.77;3.30;;;11.00;99.90;;;;;;5224466;28;20527;-51
2023/10/08 02:07:54;;;;;;;9.50;2.50;;;10.90;99.90;;;;;;5222652;28;20446;-51
2023/10/08 02:10:25;;;;;;;8.20;2.97;;;10.90;99.90;;;;;;5226968;28;20222;-51
2023/10/08 02:12:56;;;;;;;15.43;3.67;;;11.00;99.90;;;;;;5228004;28;20503;-51
2023/10/08 02:15:27;;;;;;;15.53;4.10;;;11.00;99.90;;;;;;5211171;28;20586;-51
2023/10/08 02:17:58;;;;;;;11.23;4.47;;;11.00;99.90;;;;;;5210005;28;20194;-51
2023/10/08 02:20:29;;;;;;;8.90;3.90;;;11.00;99.90;;;;;;5210062;28;20434;-51
2023/10/08 02:23:00;;;;;;;11.40;4.20;;;11.00;99.90;;;;;;5219506;28;20476;-51
2023/10/08 02:25:31;;;;;;;16.13;4.43;;;11.00;99.90;;;;;;5207478;28;21000;-52
2023/10/08 02:28:03;;;;;;;13.73;4.40;;;10.90;99.90;;;;;;5196254;28;20195;-52
2023/10/08 02:30:36;;;;;;;16.20;4.50;;;10.90;99.90;;;;;;5227914;28;20433;-51
2023/10/08 02:33:13;;;;;;;13.33;4.77;;;10.90;99.90;;;;;;5227045;28;20445;-51
2023/10/08 02:35:46;;;;;;;8.10;4.87;;;10.90;99.90;;;;;;5227990;28;20969;-51
2023/10/08 02:38:28;;;;;;;12.37;4.70;;;10.90;99.90;;;;;;5207200;28;20812;-51
2023/10/08 02:40:59;;;;;;;17.87;4.63;;;10.90;99.90;;;;;;5210384;28;20482;-51
2023/10/08 02:43:30;;;;;;;9.63;4.20;;;11.00;99.90;;;;;;5213755;28;20489;-50
2023/10/08 02:46:01;;;;;;;10.23;3.80;;;10.90;99.90;;;;;;5197706;28;20257;-51
2023/10/08 02:48:31;;;;;;;12.77;5.10;;;10.90;99.90;;;;;;5212354;28;20922;-52
2023/10/08 02:51:13;;;;;;;10.20;3.77;;;10.90;99.90;;;;;;5228231;28;20266;-52
2023/10/08 02:53:44;;;;;;;21.47;6.00;;;10.90;99.90;;;;;;5203491;28;20638;-52
2023/10/08 02:56:15;;;;;;;15.27;3.70;;;10.90;99.90;;;;;;5217557;28;20970;-51
2023/10/08 02:58:47;;;;;;;16.23;5.67;;;10.90;99.90;;;;;;5230026;28;20456;-51
2023/10/08 03:01:18;;;;;;;19.60;6.00;;;10.80;99.90;;;;;;5207169;28;20635;-51
2023/10/08 03:03:54;;;;;;;13.90;6.13;;;10.80;99.90;;;;;;5219489;28;20830;-51
2023/10/08 03:06:26;;;;;;;4.47;4.07;;;10.70;99.90;;;;;;5224228;28;20472;-51
2023/10/08 03:09:03;;;;;;;7.03;4.40;;;10.70;99.90;;;;;;5203812;28;20520;-51
2023/10/08 03:11:35;;;;;;;9.43;5.10;;;10.70;99.90;;;;;;5233298;28;20271;-52
2023/10/08 03:14:14;;;;;;;14.00;4.90;;;10.70;99.90;;;;;;5205840;28;20972;-51
2023/10/08 03:16:48;;;;;;;9.80;4.00;;;10.70;99.90;;;;;;5212758;28;20532;-55
2023/10/08 03:19:20;;;;;;;20.77;5.13;;;10.80;99.90;;;;;;5209218;28;20432;-51
2023/10/08 03:21:51;;;;;;;11.10;4.90;;;10.80;99.90;;;;;;5208975;28;21010;-51
2023/10/08 03:27:06;;;;;;;26.90;6.13;;;10.70;99.90;;;;;;5222483;28;20441;-50
2023/10/08 03:29:41;;;;;;;11.90;5.50;;;10.70;99.90;;;;;;5215512;28;20441;-51
2023/10/08 03:32:14;;;;;;;10.40;4.47;;;10.70;99.90;;;;;;5220828;28;20450;-50
2023/10/08 03:34:49;;;;;;;8.20;4.50;;;10.60;99.90;;;;;;5209468;28;20487;-52
2023/10/08 03:37:29;;;;;;;13.10;4.83;;;10.60;99.90;;;;;;5206810;28;20433;-51
2023/10/08 03:40:43;;;;;;;7.90;4.03;;;10.60;99.90;;;;;;5227464;28;20453;-51
2023/10/08 03:42:55;;;;;;;16.73;4.93;;;10.60;99.90;;;;;;5206236;28;20462;-50
2023/10/08 03:48:15;;;;;;;24.53;6.17;;;10.60;99.90;;;;;;5223099;28;20801;-51
2023/10/08 03:50:56;;;;;;;12.33;5.37;;;10.50;99.90;;;;;;5224609;28;20433;-50
2023/10/08 03:53:30;;;;;;;10.43;4.23;;;10.50;99.90;;;;;;5221998;28;20207;-51
2023/10/08 03:56:05;;;;;;;15.47;5.20;;;10.50;99.90;;;;;;5225690;28;20436;-50
2023/10/08 03:58:41;;;;;;;10.57;5.20;;;10.50;99.90;;;;;;5213828;28;20582;-51
2023/10/08 04:01:18;;;;;;;22.40;6.20;;;10.40;99.90;;;;;;5208347;28;20972;-51
2023/10/08 04:06:39;;;;;;;21.17;6.27;;;10.40;99.90;;;;;;5228879;28;20457;-51
2023/10/08 04:11:53;;;;;;;23.07;5.70;;;10.30;99.90;;;;;;5240295;28;20432;-52
2023/10/08 04:14:25;;;;;;;14.20;5.50;;;10.30;99.90;;;;;;5213179;28;20547;-51
2023/10/08 04:16:55;;;;;;;18.47;5.37;;;10.20;99.90;;;;;;5225297;28;20433;-51
2023/10/08 04:19:29;;;;;;;6.37;4.20;;;10.20;99.90;;;;;;5202111;28;20808;-51
2023/10/08 04:22:00;;;;;;;13.80;5.20;;;10.10;99.90;;;;;;5226076;28;20183;-51
2023/10/08 04:24:34;;;;;;;18.27;5.40;;;10.10;99.90;;;;;;5206067;28;20484;-50
2023/10/08 04:27:09;;;;;;;26.60;6.37;;;10.20;99.90;;;;;;5220995;28;20471;-51
2023/10/08 04:29:42;;;;;;;14.60;5.67;;;10.20;99.90;;;;;;5232004;28;20428;-51
2023/10/08 04:32:20;;;;;;;11.70;5.33;;;10.20;99.90;;;;;;5215321;28;20788;-50
2023/10/08 04:34:55;;;;;;;11.40;5.20;;;10.20;99.90;;;;;;5201922;28;20528;-52
2023/10/08 04:37:32;;;;;;;13.30;6.07;;;10.20;99.90;;;;;;5234226;28;20522;-50
2023/10/08 04:40:05;;;;;;;17.90;5.10;;;10.20;99.90;;;;;;5214110;28;20495;-50
2023/10/08 04:42:37;;;;;;;8.23;5.30;;;10.20;99.90;;;;;;5232916;28;20447;-51
2023/10/08 04:45:13;;;;;;;11.70;5.00;;;10.20;99.90;;;;;;5236921;28;20468;-51
2023/10/08 04:47:43;;;;;;;9.37;4.53;;;10.10;99.90;;;;;;5231480;28;20489;-51
2023/10/08 04:50:15;;;;;;;15.50;6.00;;;10.00;99.90;;;;;;5213727;28;20428;-50
2023/10/08 04:52:55;;;;;;;23.03;5.33;;;10.00;99.90;;;;;;5227197;28;20241;-50
2023/10/08 04:55:28;;;;;;;8.43;4.10;;;10.00;99.90;;;;;;5231905;28;20425;-50
2023/10/08 04:58:00;;;;;;;6.50;4.90;;;10.00;99.90;;;;;;5208460;28;20961;-50
2023/10/08 05:03:43;;;;;;;9.83;4.13;;;9.80;99.90;;;;;;5181943;28;20476;-50
2023/10/08 05:06:26;;;;;;;15.23;5.27;;;9.80;99.90;;;;;;5231310;28;20465;-49
2023/10/08 05:09:10;;;;;;;24.10;6.30;;;9.80;99.90;;;;;;5227137;28;20513;-50
2023/10/08 05:14:55;;;;;;;15.20;4.73;;;9.80;99.90;;;;;;5206225;28;20514;-49
2023/10/08 05:17:34;;;;;;;22.13;6.87;;;9.70;99.90;;;;;;5207845;28;20980;-51
2023/10/08 05:33:24;;;;;;;7.70;4.50;;;9.70;99.90;;;;;;5226889;28;20525;-49
2023/10/08 05:36:02;;;;;;;17.57;5.30;;;9.70;99.90;;;;;;5222035;28;20791;-51
2023/10/08 05:41:05;;;;;;;14.03;6.23;;;9.70;99.90;;;;;;5225144;28;20437;-51
2023/10/08 05:49:03;;;;;;;19.83;7.20;;;9.70;99.90;;;;;;5221583;28;20520;-51
2023/10/08 06:03:09;;;;;;;16.00;6.63;;;10.10;99.90;;;;;;5221477;28;20492;-51
2023/10/08 06:05:22;;;;;;;31.70;7.30;;;10.30;99.90;;;;;;5227020;28;20980;-51
2023/10/08 06:13:29;;;;;;;13.40;5.27;;;10.30;99.90;;;;;;5229985;28;20441;-51
2023/10/08 06:18:32;;;;;;;10.63;5.33;;;10.50;99.90;;;;;;5228534;28;20475;-50
2023/10/08 06:21:11;;;;;;;10.43;4.83;;;11.10;99.90;;;;;;5206088;28;20569;-49
2023/10/08 06:23:42;;;;;;;22.07;7.00;;;11.30;99.90;;;;;;5201064;28;20492;-50
2023/10/08 06:28:44;;;;;;;18.70;5.60;;;11.40;99.90;;;;;;5219922;28;20490;-51
2023/10/08 06:31:24;;;;;;;14.20;4.83;;;11.70;99.90;;;;;;5205837;28;20237;-51
2023/10/08 06:33:55;;;;;;;9.63;4.10;;;11.90;99.90;;;;;;5220748;28;20521;-51
2023/10/08 06:36:27;;;;;;;26.07;5.33;;;12.10;99.90;;;;;;5209460;28;20508;-50
2023/10/08 06:38:59;;;;;;;16.33;5.43;;;12.30;99.90;;;;;;5227848;28;20550;-51
2023/10/08 06:41:33;;;;;;;8.23;4.83;;;12.50;99.90;;;;;;5207340;28;20441;-51
2023/10/08 06:44:14;;;;;;;540.63;152.70;;;12.80;99.90;;;;;;5201092;28;20560;-50
2023/10/08 06:46:45;;;;;;;71.97;16.87;;;13.50;99.90;;;;;;5221120;28;21027;-49
2023/10/08 06:49:18;;;;;;;61.93;14.83;;;15.30;99.90;;;;;;5220019;28;20437;-50
2023/10/08 06:51:51;;;;;;;59.33;14.83;;;17.00;99.90;;;;;;5218230;28;20509;-50
2023/10/08 06:54:22;;;;;;;6.83;3.70;;;18.40;99.90;;;;;;5219477;28;20534;-50
2023/10/08 06:56:53;;;;;;;6.67;2.30;;;19.10;99.90;;;;;;5204271;28;20449;-51
2023/10/08 06:59:25;;;;;;;25.80;7.00;;;19.70;99.90;;;;;;5199435;28;20198;-50
2023/10/08 07:01:56;;;;;;;10.23;3.60;;;19.60;99.90;;;;;;5218611;28;20188;-50
2023/10/08 07:04:27;;;;;;;4.70;2.73;;;19.40;99.90;;;;;;5200194;28;20904;-52
2023/10/08 07:07:00;;;;;;;5.13;2.33;;;19.90;99.90;;;;;;5219719;28;20987;-50
2023/10/08 07:09:36;;;;;;;5.73;1.60;;;19.70;99.90;;;;;;5215636;28;20508;-52
2023/10/08 07:12:13;;;;;;;3.23;2.20;;;19.50;99.90;;;;;;5219338;28;20442;-50
2023/10/08 07:14:46;;;;;;;24.63;6.00;;;20.10;99.90;;;;;;5203787;28;20441;-49
2023/10/08 07:17:19;;;;;;;6.10;2.37;;;21.10;99.90;;;;;;5201930;28;20430;-51
2023/10/08 07:19:50;;;;;;;2.63;1.10;;;21.60;99.90;;;;;;5215776;28;20429;-51
2023/10/08 07:22:28;;;;;;;2.23;1.70;;;22.30;99.90;;;;;;5215864;28;20445;-51
2023/10/08 07:24:59;;;;;;;10.13;2.40;;;22.90;99.90;;;;;;5214979;28;20458;-51
2023/10/08 07:27:31;;;;;;;3.77;1.67;;;23.20;99.90;;;;;;5187473;28;20425;-51
2023/10/08 07:30:10;;;;;;;1.63;1.50;;;23.10;99.90;;;;;;5218198;28;20570;-50
2023/10/08 07:32:40;;;;;;;1.53;1.47;;;22.70;99.90;;;;;;5223464;28;20456;-52
2023/10/08 07:37:53;;;;;;;2.40;1.90;;;20.20;99.90;;;;;;5216429;28;20195;-49
2023/10/08 07:40:29;;;;;;;1.47;1.37;;;18.20;99.90;;;;;;5217840;28;20434;-51
2023/10/08 07:43:08;;;;;;;1.73;1.27;;;16.60;99.90;;;;;;5202967;28;20471;-52
2023/10/08 07:45:39;;;;;;;2.83;1.40;;;15.20;99.90;;;;;;5203385;28;20501;-49
2023/10/08 07:48:09;;;;;;;1.30;1.00;;;14.20;99.90;;;;;;5190964;28;20904;-51
2023/10/08 07:50:46;;;;;;;5.13;1.60;;;13.60;99.90;;;;;;5222197;28;20647;-50
2023/10/08 07:53:20;;;;;;;4.47;2.83;;;13.20;99.90;;;;;;5217545;28;20210;-50
2023/10/08 07:55:51;;;;;;;8.20;1.83;;;12.80;99.90;;;;;;5199631;28;20464;-51
2023/10/08 07:58:22;;;;;;;13.33;2.60;;;12.60;99.90;;;;;;5202229;28;20526;-54
2023/10/08 08:00:53;;;;;;;3.90;1.97;;;12.50;99.90;;;;;;5201140;28;20716;-52
2023/10/08 08:03:24;;;;;;;3.07;1.20;;;12.50;99.90;;;;;;5205792;28;20222;-50
2023/10/08 08:05:55;;;;;;;4.60;1.40;;;12.50;99.90;;;;;;5222696;28;20506;-50
2023/10/08 08:08:27;;;;;;;1.30;1.20;;;12.40;99.90;;;;;;5218826;28;20440;-50
2023/10/08 08:11:03;;;;;;;4.93;2.43;;;12.30;99.90;;;;;;5206126;28;20214;-50
2023/10/08 08:13:34;;;;;;;2.10;1.10;;;12.40;99.90;;;;;;5221525;28;20453;-52
2023/10/08 08:16:18;;;;;;;2.20;1.40;;;12.30;99.90;;;;;;5205231;28;20983;-53
2023/10/08 08:18:51;;;;;;;1.17;1.17;;;12.40;99.90;;;;;;5225170;28;20441;-51
2023/10/08 08:21:23;;;;;;;2.20;1.30;;;12.40;99.90;;;;;;5218594;28;20491;-51
2023/10/08 08:24:04;;;;;;;5.73;1.30;;;12.40;99.90;;;;;;5224010;28;20476;-51
2023/10/08 08:26:39;;;;;;;1.53;1.30;;;12.30;99.90;;;;;;5223777;28;20977;-51
2023/10/08 08:29:15;;;;;;;2.43;1.37;;;12.30;99.90;;;;;;5218121;28;20447;-52
2023/10/08 08:31:46;;;;;;;3.40;1.57;;;12.30;99.90;;;;;;5203144;28;20472;-51
2023/10/08 08:34:19;;;;;;;1.17;1.17;;;12.50;99.90;;;;;;5200386;28;21056;-51
2023/10/08 08:36:50;;;;;;;1.33;1.00;;;12.40;99.90;;;;;;5220114;28;20939;-55
2023/10/08 08:39:28;;;;;;;0.77;0.77;;;12.50;99.90;;;;;;5200000;28;20508;-49
2023/10/08 08:42:01;;;;;;;0.83;0.83;;;12.50;99.90;;;;;;5205234;28;20242;-51
2023/10/08 08:44:35;;;;;;;1.07;0.97;;;12.60;99.90;;;;;;5222717;28;20449;-51
2023/10/08 08:47:07;;;;;;;2.47;0.97;;;12.60;99.90;;;;;;5220050;28;20796;-51
2023/10/08 08:49:39;;;;;;;3.03;0.83;;;12.60;99.90;;;;;;5217183;28;20445;-52
2023/10/08 08:52:09;;;;;;;0.83;0.83;;;12.60;99.90;;;;;;5206284;28;20964;-52
2023/10/08 08:54:44;;;;;;;1.20;1.20;;;12.60;99.90;;;;;;5203303;28;20430;-52
2023/10/08 08:57:15;;;;;;;2.40;1.10;;;12.60;99.90;;;;;;5224266;28;20174;-52
2023/10/08 08:59:54;;;;;;;2.20;0.80;;;12.70;99.90;;;;;;5220977;28;20444;-52
2023/10/08 09:02:24;;;;;;;5.73;0.93;;;12.80;99.90;;;;;;5218534;28;20241;-51
2023/10/08 09:04:55;;;;;;;0.60;0.60;;;12.90;99.90;;;;;;5200098;28;20462;-52
2023/10/08 09:07:26;;;;;;;1.30;0.90;;;13.10;99.90;;;;;;5222039;28;20207;-52
2023/10/08 09:09:57;;;;;;;3.60;0.87;;;13.20;99.90;;;;;;5206923;28;20187;-52
2023/10/08 09:12:28;;;;;;;1.30;0.60;;;13.20;99.90;;;;;;5188661;28;20579;-51
2023/10/08 09:15:04;;;;;;;0.90;0.77;;;13.20;99.90;;;;;;5220761;28;20453;-53
2023/10/08 09:17:35;;;;;;;0.60;0.60;;;13.10;99.90;;;;;;5205546;28;20193;-53
2023/10/08 09:20:07;;;;;;;0.97;0.87;;;13.10;99.90;;;;;;5227314;28;20438;-51
2023/10/08 09:22:37;;;;;;;1.23;1.13;;;13.20;99.90;;;;;;5207940;28;20207;-51
2023/10/08 09:25:08;;;;;;;4.00;0.90;;;13.20;99.90;;;;;;5224624;28;20449;-52
2023/10/08 09:27:46;;;;;;;1.03;1.00;;;13.20;99.90;;;;;;5210846;28;20189;-51
2023/10/08 09:30:19;;;;;;;0.80;0.80;;;13.40;99.90;;;;;;5226512;28;20205;-52
2023/10/08 09:32:49;;;;;;;0.53;0.53;;;13.40;99.90;;;;;;5215090;28;20817;-53
2023/10/08 09:35:22;;;;;;;0.60;0.60;;;13.40;99.90;;;;;;5218038;28;20434;-52
2023/10/08 09:37:54;;;;;;;7.33;0.90;;;13.50;99.90;;;;;;5218267;28;20192;-52
2023/10/08 09:40:25;;;;;;;1.73;0.90;;;13.50;99.90;;;;;;5220262;28;20442;-53
2023/10/08 09:42:56;;;;;;;2.60;1.03;;;13.40;99.90;;;;;;5203225;28;20539;-52
2023/10/08 09:45:29;;;;;;;1.47;1.37;;;13.50;99.90;;;;;;5221021;28;20551;-52
2023/10/08 09:48:03;;;;;;;1.33;1.27;;;13.60;99.90;;;;;;5206208;28;20566;-52
2023/10/08 09:50:44;;;;;;;1.43;1.13;;;13.60;99.90;;;;;;5204728;28;21000;-52
2023/10/08 09:53:19;;;;;;;0.97;0.73;;;13.70;99.90;;;;;;5206831;28;20456;-51
2023/10/08 09:55:55;;;;;;;1.50;1.00;;;13.70;99.90;;;;;;5221517;28;20469;-54
2023/10/08 09:58:29;;;;;;;0.50;0.50;;;13.60;99.90;;;;;;5221042;28;20479;-52
2023/10/08 10:01:00;;;;;;;0.50;0.50;;;13.60;99.90;;;;;;5225151;28;20454;-51
2023/10/08 10:03:34;;;;;;;0.50;0.50;;;13.60;97.50;;;;;;5225807;28;20465;-51
2023/10/08 10:06:12;;;;;;;0.97;0.70;;;13.60;93.90;;;;;;5218489;28;20794;-51
2023/10/08 10:08:44;;;;;;;1.40;0.50;;;13.50;92.80;;;;;;5218469;28;20477;-52
2023/10/08 10:11:15;;;;;;;2.10;1.73;;;13.60;99.30;;;;;;5219889;28;20492;-51
2023/10/08 10:13:59;;;;;;;6.40;1.00;;;13.70;99.90;;;;;;5214576;28;20485;-51
2023/10/08 10:16:30;;;;;;;1.57;1.47;;;13.70;99.90;;;;;;5198493;28;21024;-51
2023/10/08 10:19:01;;;;;;;2.37;2.27;;;13.70;99.90;;;;;;5216840;28;20445;-52
2023/10/08 10:21:33;;;;;;;1.70;1.60;;;13.80;99.90;;;;;;5223910;28;20218;-51
2023/10/08 10:24:05;;;;;;;0.77;0.77;;;13.80;99.60;;;;;;5221359;28;20215;-51
2023/10/08 10:26:40;;;;;;;2.60;0.43;;;13.80;89.50;;;;;;5223210;28;20473;-52
2023/10/08 10:29:10;;;;;;;1.67;0.97;;;13.80;91.00;;;;;;5189546;28;20535;-51
2023/10/08 10:31:46;;;;;;;2.73;1.10;;;13.90;93.70;;;;;;5211362;28;21795;-52
2023/10/08 10:34:27;;;;;;;0.30;0.30;;;13.90;77.50;;;;;;5205625;28;20252;-52
2023/10/08 10:37:02;;;;;;;1.60;1.13;;;13.90;69.60;;;;;;5227004;28;20449;-54
2023/10/08 10:39:34;;;;;;;5.90;1.23;;;13.90;74.60;;;;;;5218554;28;20434;-52
2023/10/08 10:42:06;;;;;;;0.70;0.67;;;13.90;78.20;;;;;;5228982;28;20437;-52
2023/10/08 10:44:38;;;;;;;0.60;0.60;;;14.00;76.90;;;;;;5205617;28;20559;-51
2023/10/08 10:47:25;;;;;;;0.90;0.73;;;14.00;64.60;;;;;;5219217;28;20465;-51
2023/10/08 10:50:26;;;;;;;0.90;0.80;;;13.90;62.60;;;;;;5208962;28;20450;-52
2023/10/08 10:52:57;;;;;;;0.70;0.70;;;13.90;64.80;;;;;;5225916;28;20441;-52
2023/10/08 10:55:33;;;;;;;2.03;0.67;;;13.90;65.20;;;;;;5208349;28;20432;-52
2023/10/08 10:58:15;;;;;;;0.80;0.80;;;14.00;65.10;;;;;;5208959;28;20189;-51
2023/10/08 11:00:47;;;;;;;1.57;0.80;;;14.10;73.30;;;;;;5207044;28;21082;-51
2023/10/08 11:03:23;;;;;;;0.60;0.60;;;14.10;63.70;;;;;;5221062;28;20564;-52
2023/10/08 11:05:59;;;;;;;0.50;0.50;;;14.00;54.50;;;;;;5220041;28;20468;-53
2023/10/08 11:08:34;;;;;;;1.20;1.10;;;14.00;55.70;;;;;;5206992;28;20442;-51
2023/10/08 11:11:05;;;;;;;0.60;0.60;;;14.00;57.20;;;;;;5219051;28;20449;-52
2023/10/08 11:13:39;;;;;;;1.90;1.80;;;14.00;60.70;;;;;;5204114;28;20462;-50
2023/10/08 11:16:09;;;;;;;1.40;1.40;;;14.00;59.90;;;;;;5201543;28;20199;-52
2023/10/08 11:18:47;;;;;;;3.43;1.00;;;14.10;70.10;;;;;;5217228;28;20544;-53
2023/10/08 11:21:22;;;;;;;0.93;0.93;;;14.10;65.50;;;;;;5226413;28;20177;-52
2023/10/08 11:23:53;;;;;;;4.50;0.93;;;13.90;58.70;;;;;;5220209;28;20503;-51
2023/10/08 11:26:35;;;;;;;0.60;0.60;;;13.90;59.60;;;;;;5200446;28;21009;-53
2023/10/08 11:29:14;;;;;;;1.03;0.83;;;14.00;59.90;;;;;;5210520;28;20187;-52
2023/10/08 11:31:44;;;;;;;0.40;0.40;;;14.20;66.60;;;;;;5208127;28;20426;-51
2023/10/08 11:34:19;;;;;;;0.70;0.53;;;14.40;63.10;;;;;;5210922;28;20437;-52
2023/10/08 11:36:55;;;;;;;2.90;0.83;;;14.60;60.50;;;;;;5208119;28;20183;-52
2023/10/08 11:39:31;;;;;;;0.60;0.57;;;14.60;58.80;;;;;;5201661;28;20476;-51
2023/10/08 11:42:03;;;;;;;0.90;0.90;;;14.70;59.10;;;;;;5199907;28;20459;-50
2023/10/08 11:44:37;;;;;;;2.20;0.97;;;14.70;59.60;;;;;;5201311;28;20583;-51
2023/10/08 11:47:20;;;;;;;0.93;0.93;;;14.80;59.50;;;;;;5216653;28;20515;-52
2023/10/08 11:50:00;;;;;;;2.50;0.93;;;14.80;61.40;;;;;;5198578;28;20426;-52
2023/10/08 11:52:31;;;;;;;2.73;1.10;;;14.90;61.80;;;;;;5217990;28;20472;-51
2023/10/08 11:55:06;;;;;;;0.80;0.57;;;14.90;60.00;;;;;;5206311;28;20437;-50
2023/10/08 11:57:45;;;;;;;0.83;0.80;;;14.80;58.90;;;;;;5200346;28;20183;-50
2023/10/08 12:00:19;;;;;;;2.53;2.17;;;14.80;61.30;;;;;;5199479;28;20431;-51
2023/10/08 12:02:52;;;;;;;3.20;2.90;;;15.00;66.10;;;;;;5215271;28;20465;-50
2023/10/08 12:05:23;;;;;;;4.13;2.70;;;15.10;58.90;;;;;;5196643;28;20460;-50
2023/10/08 12:07:57;;;;;;;0.90;0.90;;;15.30;59.90;;;;;;5198031;28;20441;-51
2023/10/08 12:10:31;;;;;;;3.63;1.17;;;15.60;56.60;;;;;;5214674;28;20668;-50
2023/10/08 12:13:05;;;;;;;2.20;1.57;;;15.80;56.50;;;;;;5212327;28;20472;-50
2023/10/08 12:15:41;;;;;;;3.43;2.63;;;16.30;56.40;;;;;;5214612;28;20524;-50
2023/10/08 12:18:15;;;;;;;0.97;0.90;;;16.50;53.50;;;;;;5196568;28;20445;-50
2023/10/08 12:20:47;;;;;;;1.13;1.03;;;16.40;52.90;;;;;;5220979;28;20724;-50
2023/10/08 12:23:28;;;;;;;0.53;0.53;;;16.00;53.10;;;;;;5212935;28;20489;-51
2023/10/08 12:25:59;;;;;;;1.00;0.77;;;15.80;53.70;;;;;;5198390;28;20532;-50
2023/10/08 12:28:30;;;;;;;1.13;0.63;;;15.70;52.80;;;;;;5220428;28;20429;-51
2023/10/08 12:31:01;;;;;;;2.73;2.20;;;15.70;54.10;;;;;;5208590;28;20514;-52
2023/10/08 12:33:32;;;;;;;1.90;0.80;;;15.90;56.30;;;;;;5224597;28;20191;-50
2023/10/08 12:36:10;;;;;;;1.33;1.20;;;16.10;56.90;;;;;;5219077;28;20257;-51
2023/10/08 12:38:42;;;;;;;1.53;1.43;;;16.10;56.20;;;;;;5221174;28;20860;-50
2023/10/08 12:41:13;;;;;;;2.57;1.10;;;15.90;52.50;;;;;;5221287;28;20452;-54
2023/10/08 12:43:45;;;;;;;1.10;0.80;;;15.70;53.90;;;;;;5222058;28;20450;-50
2023/10/08 12:46:18;;;;;;;1.97;0.77;;;15.50;54.50;;;;;;5223358;28;20222;-49
2023/10/08 12:48:53;;;;;;;1.23;1.13;;;15.40;54.60;;;;;;5223647;28;20964;-50
2023/10/08 12:51:25;;;;;;;0.80;0.80;;;15.50;55.30;;;;;;5205598;28;20957;-55
2023/10/08 12:53:58;;;;;;;0.83;0.53;;;15.40;54.00;;;;;;5202528;28;20460;-51
2023/10/08 12:56:38;;;;;;;2.20;0.93;;;15.60;58.90;;;;;;5203612;28;20521;-50
2023/10/08 12:59:15;;;;;;;5.87;3.80;;;15.70;56.00;;;;;;5224792;28;20599;-52
2023/10/08 13:01:53;;;;;;;3.17;0.90;;;15.80;55.60;;;;;;5217635;28;20845;-50
2023/10/08 13:04:34;;;;;;;1.40;0.60;;;15.90;55.90;;;;;;5215445;28;20469;-51
2023/10/08 13:07:05;;;;;;;0.67;0.67;;;15.70;54.00;;;;;;5204352;28;20461;-50
2023/10/08 13:09:36;;;;;;;0.73;0.73;;;15.80;57.10;;;;;;5223745;28;20967;-50
2023/10/08 13:12:09;;;;;;;4.50;1.60;;;15.90;60.60;;;;;;5202147;28;20651;-49
2023/10/08 13:14:41;;;;;;;0.97;0.93;;;15.90;55.30;;;;;;5218130;28;20516;-50
2023/10/08 13:17:12;;;;;;;1.60;0.70;;;15.80;54.10;;;;;;5215579;28;20445;-51
2023/10/08 13:19:45;;;;;;;0.97;0.70;;;15.50;53.80;;;;;;5203354;28;20452;-50
2023/10/08 13:22:19;;;;;;;5.97;2.60;;;15.30;55.80;;;;;;5225231;28;20197;-50
2023/10/08 13:24:50;;;;;;;1.27;0.90;;;15.10;60.40;;;;;;5199170;28;20449;-51
2023/10/08 13:27:23;;;;;;;0.83;0.83;;;15.00;56.00;;;;;;5222342;28;20433;-50
2023/10/08 13:29:54;;;;;;;1.23;0.73;;;14.90;56.40;;;;;;5204703;28;20175;-51
2023/10/08 13:32:25;;;;;;;1.33;0.87;;;15.10;57.50;;;;;;5217932;28;20518;-51
2023/10/08 13:34:56;;;;;;;0.83;0.73;;;15.30;62.50;;;;;;5222595;28;20179;-51
2023/10/08 13:37:27;;;;;;;0.77;0.77;;;15.40;57.30;;;;;;5204402;28;20267;-51
2023/10/08 13:39:57;;;;;;;0.73;0.67;;;15.40;56.70;;;;;;5217856;28;20532;-50
2023/10/08 13:42:29;;;;;;;3.23;0.70;;;15.50;58.50;;;;;;5225013;28;20298;-51
2023/10/08 13:45:07;;;;;;;0.67;0.67;;;15.40;55.80;;;;;;5216587;28;20636;-49
2023/10/08 13:47:39;;;;;;;0.83;0.83;;;15.50;57.90;;;;;;5219524;28;20463;-49
2023/10/08 13:50:11;;;;;;;0.60;0.60;;;15.50;54.70;;;;;;5202827;28;20440;-50
2023/10/08 13:52:43;;;;;;;4.63;0.83;;;15.50;55.10;;;;;;5201888;28;20580;-51
2023/10/08 13:55:14;;;;;;;6.63;1.00;;;15.60;55.00;;;;;;5204766;28;20438;-50
2023/10/08 13:57:46;;;;;;;0.70;0.70;;;15.50;55.40;;;;;;5200855;28;20574;-50
2023/10/08 14:00:25;;;;;;;0.83;0.60;;;15.30;55.50;;;;;;5196037;28;20183;-51
2023/10/08 14:02:56;;;;;;;1.10;1.00;;;15.10;56.40;;;;;;5197233;28;20504;-51
2023/10/08 14:05:29;;;;;;;0.80;0.80;;;15.10;57.70;;;;;;5198625;28;20475;-49
2023/10/08 14:08:02;;;;;;;1.10;1.10;;;15.20;58.20;;;;;;5196826;28;21079;-51
2023/10/08 14:10:32;;;;;;;1.13;0.80;;;15.40;57.20;;;;;;5197900;28;20444;-52
2023/10/08 14:13:03;;;;;;;0.83;0.83;;;15.60;56.00;;;;;;5213916;28;20454;-52
2023/10/08 14:15:42;;;;;;;0.77;0.77;;;15.40;55.40;;;;;;5213622;28;20274;-49
2023/10/08 14:18:16;;;;;;;3.40;1.30;;;15.20;54.80;;;;;;5214685;28;20167;-50
2023/10/08 14:20:50;;;;;;;1.10;1.00;;;15.20;56.30;;;;;;5219482;28;20448;-50
2023/10/08 14:23:24;;;;;;;1.20;0.80;;;15.20;56.10;;;;;;5213994;28;20466;-51